Time;durP1;ratioP1;P1;durP2;ratioP2;P2;SDS_P1;SDS_P2;PMS_P1;PMS_P2;Temp;Humidity;BMP_temperature;BMP_pressure;BME280_temperature;BME280_humidity;BME280_pressure;Samples;Min_cycle;Max_cycle;Signal;HPM_P1;HPM_P2
2022/12/20 00:01:23;;;;;;;3.70;3.03;;;5.60;99.90;;;;;;5073931;28;20442;-71
2022/12/20 00:03:51;;;;;;;6.60;3.30;;;5.70;99.90;;;;;;5071094;28;20457;-70
2022/12/20 00:06:18;;;;;;;4.40;2.60;;;5.70;99.90;;;;;;5078365;28;20453;-71
2022/12/20 00:08:46;;;;;;;4.60;2.60;;;5.70;99.90;;;;;;5070459;28;20497;-71
2022/12/20 00:11:13;;;;;;;8.23;4.40;;;5.70;99.90;;;;;;5069067;28;20473;-71
2022/12/20 00:13:40;;;;;;;6.83;3.53;;;5.60;99.90;;;;;;5074540;28;20481;-71
2022/12/20 00:16:11;;;;;;;7.37;4.67;;;5.60;99.90;;;;;;5078479;28;20448;-71
2022/12/20 00:18:38;;;;;;;2.70;2.40;;;5.50;99.90;;;;;;5070340;28;20447;-71
2022/12/20 00:21:07;;;;;;;3.73;2.87;;;5.60;99.90;;;;;;5070759;28;20441;-70
2022/12/20 00:23:35;;;;;;;4.43;3.10;;;5.60;99.90;;;;;;5082450;28;20451;-70
2022/12/20 00:26:04;;;;;;;5.27;3.23;;;5.60;99.90;;;;;;5066803;28;20453;-70
2022/12/20 00:28:31;;;;;;;5.10;3.60;;;5.60;99.90;;;;;;5070599;28;20487;-70
2022/12/20 00:30:58;;;;;;;5.30;3.87;;;5.60;99.90;;;;;;5069843;28;20449;-70
2022/12/20 00:33:27;;;;;;;4.20;2.63;;;5.60;99.90;;;;;;5074543;28;20453;-70
2022/12/20 00:35:55;;;;;;;5.30;3.50;;;5.60;99.90;;;;;;5072416;28;20449;-71
2022/12/20 00:38:22;;;;;;;6.30;3.70;;;5.50;99.90;;;;;;5073407;28;20960;-70
2022/12/20 00:41:00;;;;;;;12.17;4.00;;;5.50;99.90;;;;;;5069692;28;20460;-70
2022/12/20 00:43:26;;;;;;;6.73;4.30;;;5.50;99.90;;;;;;5071243;28;20520;-71
2022/12/20 00:45:53;;;;;;;5.00;4.50;;;5.60;99.90;;;;;;5063700;28;20445;-71
2022/12/20 00:48:20;;;;;;;4.40;2.77;;;5.60;99.90;;;;;;5075599;28;20454;-71
2022/12/20 00:50:48;;;;;;;5.67;2.87;;;5.60;99.90;;;;;;5079641;28;20459;-70
2022/12/20 00:53:15;;;;;;;6.77;3.43;;;5.50;99.90;;;;;;5069532;28;20540;-70
2022/12/20 00:55:42;;;;;;;4.93;4.13;;;5.60;99.90;;;;;;5076940;28;20453;-70
2022/12/20 00:58:09;;;;;;;5.03;3.20;;;5.60;99.90;;;;;;5083592;28;20452;-70
2022/12/20 01:00:36;;;;;;;3.33;2.93;;;5.70;99.90;;;;;;5074086;28;20460;-70
2022/12/20 01:03:03;;;;;;;5.03;3.53;;;5.70;99.90;;;;;;5069075;28;20451;-70
2022/12/20 01:05:30;;;;;;;6.10;4.77;;;5.70;99.90;;;;;;5073971;28;20533;-70
2022/12/20 01:07:59;;;;;;;9.10;4.33;;;5.70;99.90;;;;;;5068709;28;20983;-71
2022/12/20 01:10:26;;;;;;;5.53;3.80;;;5.80;99.90;;;;;;5074982;28;20947;-70
2022/12/20 01:12:52;;;;;;;7.47;5.17;;;5.80;99.90;;;;;;5069065;28;20494;-71
2022/12/20 01:15:20;;;;;;;7.50;4.93;;;5.80;99.90;;;;;;5075487;28;20447;-70
2022/12/20 01:17:47;;;;;;;6.03;4.67;;;5.80;99.90;;;;;;5070745;28;20460;-71
2022/12/20 01:20:14;;;;;;;7.63;5.60;;;5.80;99.90;;;;;;5075916;28;21034;-71
2022/12/20 01:22:41;;;;;;;8.23;5.60;;;5.80;1.00;;;;;;5071015;28;20456;-70
2022/12/20 01:25:09;;;;;;;6.03;4.67;;;5.80;28.30;;;;;;5069991;28;20456;-71
2022/12/20 01:27:36;;;;;;;7.53;4.77;;;5.70;1.00;;;;;;5070626;28;20948;-71
2022/12/20 01:30:03;;;;;;;7.67;5.17;;;5.70;1.00;;;;;;5075716;28;20452;-71
2022/12/20 01:32:30;;;;;;;8.73;5.10;;;5.70;19.40;;;;;;5068905;28;20489;-70
2022/12/20 01:34:57;;;;;;;5.90;4.83;;;5.70;1.00;;;;;;5071085;28;20459;-70
2022/12/20 01:37:23;;;;;;;8.53;4.90;;;5.60;1.00;;;;;;5069415;28;20823;-71
2022/12/20 01:39:50;;;;;;;7.30;4.70;;;5.60;99.90;;;;;;5073114;28;20453;-70
2022/12/20 01:42:19;;;;;;;9.93;5.83;;;5.60;99.90;;;;;;5069126;28;20462;-70
2022/12/20 01:44:56;;;;;;;9.07;5.47;;;5.60;99.90;;;;;;5063942;28;20450;-71
2022/12/20 01:47:24;;;;;;;7.40;4.83;;;5.80;42.40;;;;;;5066254;28;20445;-71
2022/12/20 01:49:53;;;;;;;6.37;4.93;;;5.80;1.00;;;;;;5072622;28;20455;-71
2022/12/20 01:52:25;;;;;;;7.93;5.07;;;5.80;1.00;;;;;;5078906;28;20479;-71
2022/12/20 01:54:55;;;;;;;11.63;6.60;;;5.70;1.00;;;;;;5071620;28;20459;-70
2022/12/20 01:57:29;;;;;;;7.73;5.10;;;5.70;1.00;;;;;;5070338;28;20452;-71
2022/12/20 01:59:57;;;;;;;8.10;5.53;;;5.70;83.10;;;;;;5067854;28;20445;-71
2022/12/20 02:02:24;;;;;;;7.83;4.50;;;5.60;99.90;;;;;;5080451;28;20444;-71
2022/12/20 02:04:51;;;;;;;7.33;4.17;;;5.60;99.90;;;;;;5068769;28;20453;-71
2022/12/20 02:07:21;;;;;;;4.93;4.07;;;5.70;99.90;;;;;;5072676;28;20448;-70
2022/12/20 02:09:48;;;;;;;8.33;5.23;;;5.70;99.90;;;;;;5072061;28;20483;-71
2022/12/20 02:12:19;;;;;;;8.20;5.80;;;5.60;99.90;;;;;;5082914;28;20491;-70
2022/12/20 02:15:18;;;;;;;10.37;4.90;;;5.50;99.90;;;;;;5070752;28;20452;-70
2022/12/20 02:17:52;;;;;;;8.07;4.27;;;5.50;99.90;;;;;;5062404;28;20973;-71
2022/12/20 02:20:48;;;;;;;10.23;4.93;;;5.50;99.90;;;;;;5080837;28;20455;-71
2022/12/20 02:23:44;;;;;;;9.40;5.53;;;5.60;99.90;;;;;;5067065;28;20917;-70
2022/12/20 02:26:40;;;;;;;13.07;6.20;;;5.50;99.90;;;;;;5069255;28;20454;-70
2022/12/20 02:29:22;;;;;;;6.87;5.47;;;5.50;99.90;;;;;;5067371;28;20450;-70
2022/12/20 02:32:00;;;;;;;7.30;4.70;;;5.50;99.90;;;;;;5067241;28;20478;-68
2022/12/20 02:34:31;;;;;;;6.23;5.50;;;5.50;99.90;;;;;;5071739;28;20448;-70
2022/12/20 02:36:57;;;;;;;9.57;5.47;;;5.50;99.90;;;;;;5089737;28;20528;-70
2022/12/20 02:39:28;;;;;;;8.43;4.47;;;5.40;99.90;;;;;;5078352;28;20469;-70
2022/12/20 02:41:59;;;;;;;9.37;6.20;;;5.30;99.90;;;;;;5076295;28;20467;-70
2022/12/20 02:47:19;;;;;;;5.90;4.93;;;5.30;99.90;;;;;;5077077;28;20437;-70
2022/12/20 02:49:47;;;;;;;12.07;4.90;;;5.30;99.90;;;;;;5077844;28;20547;-70
2022/12/20 02:52:15;;;;;;;10.83;5.57;;;5.30;99.90;;;;;;5072823;28;20484;-70
2022/12/20 02:54:42;;;;;;;6.93;5.23;;;5.40;99.90;;;;;;5078769;28;20756;-70
2022/12/20 02:57:15;;;;;;;8.23;5.17;;;5.30;99.90;;;;;;5072727;28;20890;-71
2022/12/20 02:59:49;;;;;;;8.40;5.43;;;5.30;99.90;;;;;;5072058;28;20935;-70
2022/12/20 03:02:18;;;;;;;9.73;5.77;;;5.40;99.90;;;;;;5072574;28;20453;-71
2022/12/20 03:04:46;;;;;;;6.50;5.10;;;5.30;99.90;;;;;;5072677;28;20954;-71
2022/12/20 03:07:14;;;;;;;9.37;5.33;;;5.30;99.90;;;;;;5075942;28;20450;-71
2022/12/20 03:09:43;;;;;;;13.20;5.73;;;5.30;99.90;;;;;;5070927;28;20487;-70
2022/12/20 03:12:12;;;;;;;7.43;3.83;;;5.30;1.00;;;;;;5070685;28;20481;-71
2022/12/20 03:14:39;;;;;;;6.27;4.33;;;5.40;99.90;;;;;;5085710;28;21112;-70
2022/12/20 03:17:07;;;;;;;7.50;5.20;;;5.40;99.90;;;;;;5075958;28;20450;-71
2022/12/20 03:19:35;;;;;;;4.90;4.40;;;5.40;99.90;;;;;;5071744;28;20446;-70
2022/12/20 03:22:02;;;;;;;7.43;4.80;;;5.50;99.90;;;;;;5082043;28;20449;-70
2022/12/20 03:24:29;;;;;;;10.77;5.77;;;5.40;99.90;;;;;;5082611;28;20452;-70
2022/12/20 03:26:55;;;;;;;5.80;4.33;;;5.50;99.90;;;;;;5070586;28;20459;-70
2022/12/20 03:29:22;;;;;;;4.60;4.17;;;5.50;99.90;;;;;;5073970;28;20454;-71
2022/12/20 03:31:49;;;;;;;5.93;4.00;;;5.60;99.90;;;;;;5076325;28;20450;-71
2022/12/20 03:34:16;;;;;;;4.90;3.50;;;5.50;99.90;;;;;;5076206;28;20456;-71
2022/12/20 03:36:44;;;;;;;8.57;4.70;;;5.60;99.90;;;;;;5072669;28;20455;-70
2022/12/20 03:39:11;;;;;;;5.10;3.73;;;5.60;99.90;;;;;;5086824;28;21122;-70
2022/12/20 03:41:37;;;;;;;8.20;4.97;;;5.50;99.90;;;;;;5074330;28;20452;-71
2022/12/20 03:44:04;;;;;;;8.73;4.27;;;5.60;99.90;;;;;;5071843;28;20448;-71
2022/12/20 03:46:31;;;;;;;8.77;4.77;;;5.60;99.90;;;;;;5071062;28;20522;-71
2022/12/20 03:48:58;;;;;;;6.80;3.50;;;5.60;99.90;;;;;;5070245;28;20533;-71
2022/12/20 03:51:25;;;;;;;5.90;4.03;;;5.60;99.90;;;;;;5072174;28;20449;-71
2022/12/20 03:53:53;;;;;;;9.93;4.53;;;5.60;99.90;;;;;;5073665;28;20493;-71
2022/12/20 03:56:20;;;;;;;3.97;3.47;;;5.60;99.90;;;;;;5070203;28;20455;-71
2022/12/20 03:58:46;;;;;;;6.50;4.10;;;5.80;99.90;;;;;;5078530;28;20447;-71
2022/12/20 04:01:21;;;;;;;4.17;2.93;;;5.70;99.90;;;;;;5071089;28;20452;-71
2022/12/20 04:03:48;;;;;;;8.40;4.80;;;5.70;99.90;;;;;;5070584;28;20504;-71
2022/12/20 04:06:15;;;;;;;7.33;3.73;;;5.60;99.90;;;;;;5070774;28;20452;-71
2022/12/20 04:08:42;;;;;;;5.47;3.33;;;5.60;99.90;;;;;;5070129;28;20488;-71
2022/12/20 04:11:17;;;;;;;8.03;4.03;;;5.70;99.90;;;;;;5069059;28;21297;-71
2022/12/20 04:13:45;;;;;;;4.33;3.47;;;5.60;99.90;;;;;;5070465;28;20844;-71
2022/12/20 04:16:12;;;;;;;3.10;2.80;;;5.80;99.90;;;;;;5069569;28;20936;-71
2022/12/20 04:18:39;;;;;;;6.23;3.60;;;5.80;99.90;;;;;;5069854;28;20462;-71
2022/12/20 04:21:07;;;;;;;5.50;3.60;;;5.80;99.90;;;;;;5069355;28;20470;-71
2022/12/20 04:23:35;;;;;;;5.63;4.10;;;5.70;99.90;;;;;;5070314;28;20457;-70
2022/12/20 04:26:01;;;;;;;5.83;4.23;;;5.80;99.90;;;;;;5069204;28;20463;-71
2022/12/20 04:28:30;;;;;;;7.80;3.97;;;5.90;99.90;;;;;;5070028;28;20774;-70
2022/12/20 04:30:58;;;;;;;5.60;3.10;;;5.90;99.90;;;;;;5068924;28;20455;-71
2022/12/20 04:33:25;;;;;;;4.80;3.17;;;5.90;99.90;;;;;;5070104;28;20835;-71
2022/12/20 04:35:52;;;;;;;5.63;3.93;;;5.90;99.90;;;;;;5070607;28;20439;-70
2022/12/20 04:38:20;;;;;;;5.00;4.30;;;5.80;99.90;;;;;;5071002;28;20544;-71
2022/12/20 04:40:49;;;;;;;5.13;3.40;;;5.80;99.90;;;;;;5065878;28;20459;-71
2022/12/20 04:43:16;;;;;;;8.30;3.67;;;5.80;99.90;;;;;;5072819;28;20507;-71
2022/12/20 04:45:44;;;;;;;5.00;3.63;;;5.90;99.90;;;;;;5069721;28;20453;-71
2022/12/20 04:48:11;;;;;;;6.37;3.53;;;5.80;99.90;;;;;;5068842;28;20971;-71
2022/12/20 04:50:38;;;;;;;5.07;3.43;;;5.90;99.90;;;;;;5070424;28;20468;-71
2022/12/20 04:55:50;;;;;;;4.97;3.47;;;5.80;99.90;;;;;;5069594;28;20522;-71
2022/12/20 04:58:17;;;;;;;4.60;3.10;;;5.70;99.90;;;;;;5071820;28;20456;-71
2022/12/20 05:00:45;;;;;;;5.27;3.20;;;5.80;99.90;;;;;;5073587;28;20553;-71
2022/12/20 05:03:12;;;;;;;6.03;3.83;;;5.90;99.90;;;;;;5072514;28;20508;-69
2022/12/20 05:05:39;;;;;;;5.60;3.37;;;5.90;99.90;;;;;;5069048;28;20460;-70
2022/12/20 05:08:06;;;;;;;5.97;3.97;;;5.80;99.90;;;;;;5071067;28;20566;-70
2022/12/20 05:10:33;;;;;;;5.77;3.03;;;5.90;99.90;;;;;;5070314;28;20460;-72
2022/12/20 05:12:59;;;;;;;5.30;3.23;;;5.80;99.90;;;;;;5075903;28;20816;-70
2022/12/20 05:15:26;;;;;;;5.47;2.67;;;5.80;99.90;;;;;;5082080;28;20458;-70
2022/12/20 05:17:58;;;;;;;4.23;3.17;;;5.90;99.90;;;;;;5068627;28;20459;-70
2022/12/20 05:20:25;;;;;;;6.43;2.83;;;6.00;99.90;;;;;;5075864;28;20931;-70
2022/12/20 05:28:31;;;;;;;5.43;3.03;;;5.90;99.90;;;;;;5072564;28;20511;-72
2022/12/20 05:30:58;;;;;;;3.60;2.97;;;6.00;99.90;;;;;;5068469;28;20521;-80
2022/12/20 05:33:26;;;;;;;6.10;2.83;;;5.90;99.90;;;;;;5072864;28;20482;-71
2022/12/20 05:35:53;;;;;;;6.83;3.47;;;5.90;99.90;;;;;;5068436;28;20579;-72
2022/12/20 05:38:20;;;;;;;4.37;2.87;;;5.90;99.90;;;;;;5068976;28;20443;-71
2022/12/20 05:40:48;;;;;;;4.70;2.73;;;5.90;99.90;;;;;;5072746;28;20460;-72
2022/12/20 05:43:15;;;;;;;5.13;3.57;;;5.90;99.90;;;;;;5069249;28;20449;-71
2022/12/20 05:45:46;;;;;;;4.77;2.90;;;5.90;99.90;;;;;;5069126;28;20455;-71
2022/12/20 05:48:13;;;;;;;3.37;3.10;;;6.00;99.90;;;;;;5068761;28;20446;-71
2022/12/20 05:50:43;;;;;;;3.93;3.30;;;6.00;99.90;;;;;;5069996;28;20456;-72
2022/12/20 05:53:10;;;;;;;4.53;2.60;;;6.00;99.90;;;;;;5076126;28;20718;-77
2022/12/20 05:55:39;;;;;;;4.27;2.87;;;6.00;99.90;;;;;;5073977;28;20464;-72
2022/12/20 05:58:06;;;;;;;5.13;2.70;;;5.90;99.90;;;;;;5074447;28;20452;-72
2022/12/20 06:00:33;;;;;;;3.80;2.70;;;5.90;1.00;;;;;;5079502;28;20454;-76
2022/12/20 06:03:00;;;;;;;4.37;3.60;;;5.90;99.90;;;;;;5076761;28;20512;-75
2022/12/20 06:05:26;;;;;;;3.07;2.77;;;5.90;99.90;;;;;;5091344;28;20451;-73
2022/12/20 06:07:55;;;;;;;3.10;2.17;;;5.90;99.90;;;;;;5074305;28;20512;-72
2022/12/20 06:10:21;;;;;;;3.83;2.30;;;5.90;99.90;;;;;;5076845;28;20462;-73
2022/12/20 06:12:48;;;;;;;7.10;3.23;;;5.80;1.00;;;;;;5085362;28;20848;-72
2022/12/20 06:15:15;;;;;;;6.00;2.17;;;5.70;1.00;;;;;;5080593;28;20459;-72
2022/12/20 06:17:42;;;;;;;4.83;3.03;;;5.80;1.00;;;;;;5073303;28;20448;-72
2022/12/20 06:20:11;;;;;;;2.73;1.80;;;5.80;1.00;;;;;;5079536;28;20455;-72
2022/12/20 06:22:37;;;;;;;6.90;3.03;;;5.80;1.00;;;;;;5074417;28;20516;-73
2022/12/20 06:25:08;;;;;;;3.83;2.63;;;5.80;1.00;;;;;;5080172;28;20457;-72
2022/12/20 06:27:35;;;;;;;4.43;3.73;;;5.80;1.00;;;;;;5072465;28;20431;-73
2022/12/20 06:30:01;;;;;;;5.30;3.50;;;6.00;99.90;;;;;;5071928;28;20808;-72
2022/12/20 06:32:28;;;;;;;5.07;2.87;;;5.90;99.90;;;;;;5072042;28;20458;-72
2022/12/20 06:34:55;;;;;;;4.87;3.17;;;5.90;99.90;;;;;;5071571;28;20493;-72
2022/12/20 06:37:22;;;;;;;4.50;2.80;;;6.00;99.90;;;;;;5072384;28;20458;-73
2022/12/20 06:39:49;;;;;;;4.13;2.67;;;6.00;99.90;;;;;;5072782;28;20456;-73
2022/12/20 06:42:17;;;;;;;9.30;2.90;;;6.10;99.90;;;;;;5071349;28;20452;-73
2022/12/20 06:44:44;;;;;;;6.50;3.33;;;6.30;40.00;;;;;;5072386;28;20457;-72
2022/12/20 06:47:11;;;;;;;4.93;2.63;;;6.20;99.90;;;;;;5071765;28;20454;-72
2022/12/20 06:49:38;;;;;;;4.00;2.67;;;6.20;99.90;;;;;;5072240;28;20457;-73
2022/12/20 06:52:05;;;;;;;4.47;2.53;;;6.30;99.90;;;;;;5071174;28;20800;-73
2022/12/20 06:54:31;;;;;;;4.80;2.97;;;6.30;99.90;;;;;;5072179;28;20813;-72
2022/12/20 06:56:58;;;;;;;4.07;2.80;;;6.20;99.90;;;;;;5071230;28;20465;-73
2022/12/20 06:59:26;;;;;;;8.77;2.77;;;6.30;99.90;;;;;;5071910;28;20464;-72
2022/12/20 07:01:53;;;;;;;4.40;2.70;;;6.30;99.90;;;;;;5058984;28;20448;-73
2022/12/20 07:04:20;;;;;;;7.70;1.97;;;6.40;99.90;;;;;;5071596;28;20487;-73
2022/12/20 07:06:47;;;;;;;5.30;2.47;;;6.30;99.90;;;;;;5071808;28;20534;-72
2022/12/20 07:09:14;;;;;;;4.83;2.73;;;6.40;99.90;;;;;;5070334;28;20576;-72
2022/12/20 07:11:42;;;;;;;3.40;2.23;;;6.50;1.00;;;;;;5070952;28;20462;-72
2022/12/20 07:14:09;;;;;;;7.10;2.70;;;6.30;76.80;;;;;;5071106;28;20486;-73
2022/12/20 07:16:40;;;;;;;3.50;2.90;;;6.30;99.90;;;;;;5071773;28;20453;-74
2022/12/20 07:19:07;;;;;;;2.83;2.50;;;6.30;99.90;;;;;;5070820;28;20498;-72
2022/12/20 07:21:34;;;;;;;3.00;2.00;;;6.30;99.90;;;;;;5070997;28;20455;-73
2022/12/20 07:24:00;;;;;;;4.47;2.77;;;6.20;99.90;;;;;;5070096;28;20459;-72
2022/12/20 07:26:27;;;;;;;5.37;4.23;;;6.30;99.90;;;;;;5071001;28;20460;-73
2022/12/20 07:28:54;;;;;;;4.00;2.87;;;6.40;99.90;;;;;;5070530;28;20455;-73
2022/12/20 07:31:21;;;;;;;3.87;2.30;;;6.50;31.20;;;;;;5071104;28;20450;-74
2022/12/20 07:33:50;;;;;;;2.63;2.17;;;6.60;1.00;;;;;;5071011;28;20561;-73
2022/12/20 07:36:16;;;;;;;3.50;2.10;;;6.60;1.00;;;;;;5071344;28;20461;-73
2022/12/20 07:38:43;;;;;;;2.53;1.60;;;6.60;51.20;;;;;;5070943;28;20817;-72
2022/12/20 07:41:11;;;;;;;4.30;2.90;;;6.70;9.90;;;;;;5070044;28;20467;-73
2022/12/20 07:43:38;;;;;;;3.93;2.13;;;6.60;99.90;;;;;;5070749;28;20476;-72
2022/12/20 07:46:06;;;;;;;4.70;2.53;;;;;;;;;;5070249;28;20450;-72
2022/12/20 07:48:34;;;;;;;5.40;3.10;;;;;;;;;;5071053;28;20449;-73
2022/12/20 07:51:04;;;;;;;3.63;2.67;;;;;;;;;;5069654;28;21141;-73
2022/12/20 07:53:31;;;;;;;3.30;2.30;;;;;;;;;;5070370;28;20520;-72
2022/12/20 07:55:59;;;;;;;3.37;3.07;;;;;;;;;;5069579;28;20453;-72
2022/12/20 07:58:27;;;;;;;4.00;2.70;;;;;;;;;;5070420;28;20961;-72
2022/12/20 08:00:54;;;;;;;2.50;1.93;;;;;;;;;;5069639;28;20453;-72
2022/12/20 08:03:23;;;;;;;3.60;2.37;;;;;;;;;;5070116;28;20457;-73
2022/12/20 08:05:52;;;;;;;3.93;3.07;;;;;;;;;;5070346;28;20450;-73
2022/12/20 08:08:21;;;;;;;3.90;2.63;;;6.80;99.90;;;;;;5070278;28;20493;-73
2022/12/20 08:10:48;;;;;;;3.60;2.20;;;7.20;99.90;;;;;;5069875;28;21025;-72
2022/12/20 08:13:16;;;;;;;2.83;1.80;;;7.40;1.00;;;;;;5069185;28;20443;-73
2022/12/20 08:15:43;;;;;;;2.93;2.47;;;7.40;99.90;;;;;;5070275;28;20456;-72
2022/12/20 08:18:10;;;;;;;2.93;1.70;;;7.60;99.90;;;;;;5069966;28;20451;-73
2022/12/20 08:20:37;;;;;;;3.50;2.23;;;7.60;99.90;;;;;;5070325;28;20451;-72
2022/12/20 08:23:04;;;;;;;2.00;1.80;;;7.90;99.90;;;;;;5069673;28;20546;-72
2022/12/20 08:25:33;;;;;;;2.10;1.70;;;8.00;1.00;;;;;;5070072;28;20462;-72
2022/12/20 08:28:01;;;;;;;4.00;2.17;;;8.00;1.00;;;;;;5068957;28;20461;-72
2022/12/20 08:30:28;;;;;;;3.53;2.70;;;8.00;1.00;;;;;;5070164;28;20451;-72
2022/12/20 08:32:55;;;;;;;7.73;2.13;;;8.00;1.00;;;;;;5069321;28;20449;-73
2022/12/20 08:35:22;;;;;;;6.57;2.90;;;8.00;1.00;;;;;;5070208;28;20489;-73
2022/12/20 08:37:51;;;;;;;2.03;1.80;;;8.00;1.00;;;;;;5070334;28;20463;-73
2022/12/20 08:40:18;;;;;;;4.07;2.30;;;8.00;1.00;;;;;;5070246;28;20468;-73
2022/12/20 08:42:47;;;;;;;3.83;2.77;;;8.00;26.20;;;;;;5069862;28;20447;-73
2022/12/20 08:45:14;;;;;;;4.53;2.40;;;8.10;1.00;;;;;;5069606;28;20448;-73
2022/12/20 08:47:41;;;;;;;4.20;2.00;;;8.10;1.00;;;;;;5070199;28;20542;-73
2022/12/20 08:50:08;;;;;;;2.83;2.00;;;8.20;1.00;;;;;;5069270;28;20945;-72
2022/12/20 08:52:35;;;;;;;1.90;1.50;;;8.30;99.90;;;;;;5069757;28;20471;-73
2022/12/20 08:55:02;;;;;;;4.13;2.10;;;8.30;99.90;;;;;;5069238;28;20487;-73
2022/12/20 08:57:29;;;;;;;3.97;2.10;;;8.40;99.90;;;;;;5069689;28;20448;-73
2022/12/20 08:59:57;;;;;;;4.50;1.87;;;8.60;6.60;;;;;;5069632;28;20463;-73
2022/12/20 09:02:24;;;;;;;3.90;2.07;;;8.50;69.40;;;;;;5069726;28;20441;-73
2022/12/20 09:04:50;;;;;;;5.27;3.00;;;8.60;1.00;;;;;;5069864;28;20499;-73
2022/12/20 09:07:17;;;;;;;3.73;2.40;;;8.70;1.00;;;;;;5069763;28;20490;-73
2022/12/20 09:09:46;;;;;;;10.43;3.50;;;8.70;1.00;;;;;;5069617;28;20480;-72
2022/12/20 09:12:12;;;;;;;4.13;2.00;;;8.60;1.00;;;;;;5068744;28;20453;-73
2022/12/20 09:14:39;;;;;;;3.33;2.17;;;8.60;1.00;;;;;;5069270;28;21116;-73
2022/12/20 09:17:07;;;;;;;2.20;2.00;;;8.60;1.00;;;;;;5068928;28;20446;-73
2022/12/20 09:19:34;;;;;;;3.87;2.83;;;8.60;1.00;;;;;;5069459;28;20449;-73
2022/12/20 09:22:01;;;;;;;4.53;2.73;;;8.70;1.00;;;;;;5068836;28;20456;-72
2022/12/20 09:24:28;;;;;;;4.83;3.23;;;8.70;1.00;;;;;;5070584;28;20456;-73
2022/12/20 09:26:54;;;;;;;5.20;2.70;;;8.70;1.00;;;;;;5073106;28;20547;-72
2022/12/20 09:29:21;;;;;;;5.00;1.83;;;8.70;1.00;;;;;;5073791;28;20924;-72
2022/12/20 09:31:49;;;;;;;4.90;2.57;;;8.70;1.00;;;;;;5073465;28;20445;-73
2022/12/20 09:34:18;;;;;;;3.83;2.67;;;8.70;1.00;;;;;;5073680;28;20990;-74
2022/12/20 09:36:44;;;;;;;2.80;2.20;;;8.70;1.00;;;;;;5073602;28;20449;-73
2022/12/20 09:39:11;;;;;;;4.53;2.77;;;8.70;1.00;;;;;;5073114;28;20503;-73
2022/12/20 09:41:40;;;;;;;5.00;2.30;;;8.60;1.00;;;;;;5073109;28;20462;-73
2022/12/20 09:44:15;;;;;;;2.90;1.90;;;8.60;1.00;;;;;;5070429;28;20457;-73
2022/12/20 09:46:44;;;;;;;3.80;2.80;;;8.70;1.00;;;;;;5068996;28;20461;-72
2022/12/20 09:49:15;;;;;;;3.63;2.40;;;8.80;1.00;;;;;;5072507;28;20461;-73
2022/12/20 09:52:07;;;;;;;4.07;2.30;;;8.80;1.00;;;;;;5072233;28;20974;-73
2022/12/20 09:54:43;;;;;;;3.60;1.70;;;8.90;1.00;;;;;;5072743;28;20473;-74
2022/12/20 09:57:20;;;;;;;2.37;2.03;;;9.00;1.00;;;;;;5072493;28;21197;-73
2022/12/20 09:59:47;;;;;;;4.93;2.47;;;9.00;1.00;;;;;;5073546;28;20441;-73
2022/12/20 10:02:18;;;;;;;2.70;2.23;;;9.00;1.00;;;;;;5072097;28;20449;-73
2022/12/20 10:04:45;;;;;;;4.70;2.30;;;9.00;1.00;;;;;;5072698;28;20941;-73
2022/12/20 10:07:26;;;;;;;4.93;2.10;;;9.00;1.00;;;;;;5072040;28;20457;-73
2022/12/20 10:10:15;;;;;;;2.97;2.67;;;9.00;1.00;;;;;;5067779;28;20483;-73
2022/12/20 10:12:49;;;;;;;2.30;2.00;;;9.00;1.00;;;;;;5072545;28;20445;-74
2022/12/20 10:15:21;;;;;;;2.70;2.00;;;9.00;1.00;;;;;;5073218;28;20471;-73
2022/12/20 10:18:05;;;;;;;2.50;1.80;;;9.10;1.00;;;;;;5072772;28;20449;-73
2022/12/20 10:20:49;;;;;;;3.43;2.00;;;9.20;1.00;;;;;;5072058;28;20454;-73
2022/12/20 10:23:22;;;;;;;2.10;1.53;;;9.10;1.00;;;;;;5072061;28;20448;-73
2022/12/20 10:25:51;;;;;;;6.67;2.57;;;9.20;1.00;;;;;;5072762;28;20450;-73
2022/12/20 10:28:20;;;;;;;1.80;1.57;;;9.30;99.90;;;;;;5072568;28;20456;-73
2022/12/20 10:30:47;;;;;;;3.63;1.90;;;9.40;99.90;;;;;;5072329;28;20503;-73
2022/12/20 10:33:19;;;;;;;3.17;1.30;;;9.50;99.90;;;;;;5071559;28;20479;-73
2022/12/20 10:35:46;;;;;;;3.30;2.20;;;9.50;99.90;;;;;;5059163;28;20489;-73
2022/12/20 10:38:16;;;;;;;2.37;2.10;;;9.50;99.90;;;;;;5071208;28;20545;-74
2022/12/20 10:40:47;;;;;;;2.30;1.47;;;9.40;99.90;;;;;;5072041;28;20456;-73
2022/12/20 10:43:19;;;;;;;5.60;2.20;;;9.50;99.90;;;;;;5071381;28;20444;-73
2022/12/20 10:45:57;;;;;;;2.83;1.50;;;9.50;99.90;;;;;;5072135;28;20458;-73
2022/12/20 10:48:29;;;;;;;3.17;1.77;;;9.40;99.90;;;;;;5072413;28;20453;-73
2022/12/20 10:50:58;;;;;;;1.63;1.50;;;9.40;99.90;;;;;;5071506;28;20864;-73
2022/12/20 10:53:26;;;;;;;4.13;1.37;;;9.40;99.90;;;;;;5071904;28;20466;-73
2022/12/20 10:55:55;;;;;;;2.73;1.80;;;9.50;99.90;;;;;;5071631;28;20491;-73
2022/12/20 10:58:31;;;;;;;3.67;2.13;;;9.60;99.90;;;;;;5071359;28;20457;-73
2022/12/20 11:01:11;;;;;;;2.43;1.80;;;9.60;99.90;;;;;;5070600;28;20558;-73
2022/12/20 11:03:54;;;;;;;2.07;1.87;;;9.60;99.90;;;;;;5072135;28;20879;-73
2022/12/20 11:06:24;;;;;;;3.43;1.40;;;9.70;99.90;;;;;;5071875;28;20457;-73
2022/12/20 11:08:51;;;;;;;4.43;2.40;;;9.70;99.90;;;;;;5070990;28;21043;-73
2022/12/20 11:11:22;;;;;;;3.10;1.73;;;9.70;99.90;;;;;;5071321;28;20557;-73
2022/12/20 11:13:50;;;;;;;2.77;1.77;;;9.70;99.90;;;;;;5072156;28;20446;-73
2022/12/20 11:16:26;;;;;;;3.47;1.97;;;9.70;99.90;;;;;;5071309;28;20487;-73
2022/12/20 11:19:02;;;;;;;2.00;1.80;;;9.80;99.90;;;;;;5071109;28;20456;-73
2022/12/20 11:21:38;;;;;;;5.90;2.10;;;9.80;99.90;;;;;;5071639;28;20458;-73
2022/12/20 11:24:11;;;;;;;5.20;1.70;;;9.90;78.60;;;;;;5070898;28;20456;-73
2022/12/20 11:26:59;;;;;;;2.03;1.40;;;9.90;77.20;;;;;;5071756;28;20452;-73
2022/12/20 11:29:45;;;;;;;2.70;1.80;;;9.80;99.90;;;;;;5071117;28;20457;-73
2022/12/20 11:32:24;;;;;;;3.03;2.33;;;9.90;95.30;;;;;;5070134;28;20683;-73
2022/12/20 11:34:56;;;;;;;2.63;1.37;;;9.80;99.90;;;;;;5070916;28;20476;-73
2022/12/20 11:37:25;;;;;;;3.00;1.63;;;9.90;57.90;;;;;;5058493;28;20447;-73
2022/12/20 11:40:11;;;;;;;3.30;2.30;;;9.90;23.50;;;;;;5070555;28;20453;-73
2022/12/20 11:42:54;;;;;;;3.23;2.20;;;9.90;57.30;;;;;;5070645;28;21230;-73
2022/12/20 11:45:28;;;;;;;3.30;2.20;;;9.90;82.80;;;;;;5070938;28;20964;-73
2022/12/20 11:48:19;;;;;;;3.60;1.90;;;9.90;95.10;;;;;;5069898;28;20452;-74
2022/12/20 11:50:57;;;;;;;2.27;1.80;;;10.00;1.00;;;;;;5070851;28;20548;-73
2022/12/20 11:53:30;;;;;;;2.10;1.63;;;10.20;1.00;;;;;;5070858;28;20456;-74
2022/12/20 11:56:02;;;;;;;1.90;1.60;;;10.20;1.00;;;;;;5070016;28;20483;-74
2022/12/20 11:58:38;;;;;;;5.00;1.83;;;10.20;1.00;;;;;;5070883;28;20453;-73
2022/12/20 12:01:08;;;;;;;2.80;1.70;;;10.20;1.00;;;;;;5069763;28;20487;-73
2022/12/20 12:03:37;;;;;;;2.27;1.77;;;10.30;1.00;;;;;;5070714;28;20450;-73
2022/12/20 12:06:09;;;;;;;3.27;1.80;;;10.20;1.00;;;;;;5070401;28;20461;-73
2022/12/20 12:08:43;;;;;;;3.93;3.57;;;10.10;1.00;;;;;;5070888;28;20487;-73
2022/12/20 12:11:16;;;;;;;2.53;1.70;;;10.20;1.00;;;;;;5069834;28;20781;-73
2022/12/20 12:13:45;;;;;;;3.17;1.30;;;10.20;1.00;;;;;;5070727;28;20442;-73
2022/12/20 12:16:17;;;;;;;2.47;1.70;;;10.20;1.00;;;;;;5059901;28;20824;-73
2022/12/20 12:18:45;;;;;;;3.93;2.03;;;10.00;1.00;;;;;;5063454;28;20443;-73
2022/12/20 12:21:20;;;;;;;4.50;2.27;;;10.10;1.00;;;;;;5055447;28;20452;-73
2022/12/20 12:23:57;;;;;;;3.20;1.87;;;10.00;1.00;;;;;;5069981;28;20446;-73
2022/12/20 12:26:27;;;;;;;2.60;1.83;;;10.00;1.00;;;;;;5070194;28;20460;-73
2022/12/20 12:28:57;;;;;;;1.70;1.43;;;9.90;1.00;;;;;;5069490;28;20536;-73
2022/12/20 12:31:30;;;;;;;3.20;2.63;;;9.90;52.70;;;;;;5069656;28;20447;-73
2022/12/20 12:34:06;;;;;;;5.30;1.80;;;9.80;99.90;;;;;;5069628;28;20447;-73
2022/12/20 12:36:53;;;;;;;2.53;1.60;;;9.80;99.90;;;;;;5070193;28;20973;-72
2022/12/20 12:39:53;;;;;;;3.10;2.07;;;9.90;47.20;;;;;;5070174;28;20463;-73
2022/12/20 12:42:55;;;;;;;8.23;2.20;;;10.00;29.30;;;;;;5044907;28;20471;-72
2022/12/20 12:45:27;;;;;;;2.30;1.80;;;10.00;99.90;;;;;;5062786;28;20463;-73
2022/12/20 12:47:58;;;;;;;4.10;2.00;;;9.90;99.90;;;;;;5069373;28;20450;-73
2022/12/20 12:50:29;;;;;;;2.63;1.63;;;9.70;99.90;;;;;;5056451;28;20501;-74
2022/12/20 12:52:58;;;;;;;3.10;2.50;;;9.70;1.00;;;;;;5068795;28;20461;-73
2022/12/20 12:55:41;;;;;;;4.77;3.30;;;9.80;99.90;;;;;;5070202;28;20482;-73
2022/12/20 12:58:38;;;;;;;5.47;1.97;;;9.80;99.90;;;;;;5069307;28;20794;-73
2022/12/20 13:01:10;;;;;;;3.80;2.20;;;9.90;99.90;;;;;;5068786;28;20436;-73
2022/12/20 13:03:44;;;;;;;3.00;2.17;;;10.00;96.40;;;;;;5069743;28;20450;-73
2022/12/20 13:06:57;;;;;;;7.07;3.20;;;10.00;99.90;;;;;;5069422;28;20525;-72
2022/12/20 13:09:41;;;;;;;1.67;1.50;;;10.00;99.90;;;;;;5044685;28;20487;-75
2022/12/20 13:12:49;;;;;;;4.40;2.23;;;10.00;99.90;;;;;;5068754;28;20470;-74
2022/12/20 13:15:51;;;;;;;3.17;1.80;;;10.00;99.90;;;;;;5069347;28;20481;-74
2022/12/20 13:18:26;;;;;;;2.33;1.50;;;10.20;14.10;;;;;;5069470;28;20733;-74
2022/12/20 13:21:32;;;;;;;5.47;1.73;;;10.20;1.00;;;;;;5068857;28;20449;-71
2022/12/20 13:24:36;;;;;;;2.73;2.07;;;10.20;1.00;;;;;;5068806;28;20451;-75
2022/12/20 13:27:04;;;;;;;2.70;1.73;;;10.20;1.00;;;;;;5073419;28;20442;-74
2022/12/20 13:29:34;;;;;;;4.40;1.43;;;10.20;1.00;;;;;;5070806;28;20457;-74